createdAt,value
2018-11-01T00:01:28.057Z,79.31
2018-11-01T00:03:56.703Z,79.39
2018-11-01T00:06:25.480Z,79.76
2018-11-01T00:08:54.116Z,79.69
2018-11-01T00:11:22.765Z,78.83
2018-11-01T00:13:51.480Z,79.26
2018-11-01T00:16:20.136Z,79.18
2018-11-01T00:18:48.798Z,78.95
2018-11-01T00:21:17.439Z,79.28
2018-11-01T00:23:46.093Z,79.21
2018-11-01T00:26:14.735Z,79.09
2018-11-01T00:28:43.358Z,78.81
2018-11-01T00:31:12.052Z,78.03
2018-11-01T00:33:40.721Z,77.94
2018-11-01T00:36:09.381Z,78.26
2018-11-01T00:38:38.009Z,78.38
2018-11-01T00:41:06.691Z,77.97
2018-11-01T00:43:35.382Z,78.11
2018-11-01T00:46:04.031Z,78.51
2018-11-01T00:48:32.648Z,78.21
2018-11-01T00:51:01.331Z,78.48
2018-11-01T00:53:29.928Z,78.09
2018-11-01T00:55:58.661Z,77.84
2018-11-01T00:58:27.281Z,78.16
2018-11-01T01:00:55.973Z,78.17
2018-11-01T01:03:24.637Z,78.14
2018-11-01T01:05:53.304Z,77.90
2018-11-01T01:08:21.999Z,77.39
2018-11-01T01:10:50.644Z,77.37
2018-11-01T01:13:19.276Z,77.57
2018-11-01T01:15:47.945Z,77.39
2018-11-01T01:18:16.636Z,77.67
2018-11-01T01:20:45.305Z,77.34
2018-11-01T01:23:14.192Z,77.18
2018-11-01T01:25:43.807Z,77.74
2018-11-01T01:28:13.726Z,77.31
2018-11-01T01:30:42.383Z,77.37
2018-11-01T01:33:11.044Z,77.24
2018-11-01T01:35:39.713Z,77.13
2018-11-01T01:38:08.329Z,76.97
2018-11-01T01:40:37.002Z,77.13
2018-11-01T01:43:05.654Z,77.32
2018-11-01T01:45:34.323Z,77.26
2018-11-01T01:48:02.957Z,77.26
2018-11-01T01:50:31.631Z,77.30
2018-11-01T01:53:00.228Z,77.59
2018-11-01T01:55:28.921Z,77.36
2018-11-01T01:57:57.555Z,77.72
2018-11-01T02:00:26.221Z,77.74
2018-11-01T02:02:54.833Z,77.58
2018-11-01T02:05:23.500Z,77.71
2018-11-01T02:07:52.183Z,78.03
2018-11-01T02:10:20.821Z,78.00
2018-11-01T02:12:49.455Z,78.35
2018-11-01T02:15:19.336Z,78.45
2018-11-01T02:17:47.990Z,78.50
2018-11-01T02:20:17.905Z,77.85
2018-11-01T02:22:46.830Z,78.55
2018-11-01T02:25:15.639Z,78.19
2018-11-01T02:28:20.719Z,78.56
2018-11-01T02:30:49.381Z,78.63
2018-11-01T02:33:18.004Z,78.67
2018-11-01T02:35:46.647Z,78.70
2018-11-01T02:38:15.388Z,78.86
2018-11-01T02:40:43.919Z,78.45
2018-11-01T02:43:12.521Z,78.67
2018-11-01T02:45:41.189Z,78.84
2018-11-01T02:48:09.843Z,79.51
2018-11-01T02:50:38.501Z,78.97
2018-11-01T02:53:07.177Z,78.78
2018-11-01T02:55:35.849Z,78.93
2018-11-01T02:58:04.516Z,78.78
2018-11-01T03:00:33.177Z,79.19
2018-11-01T03:03:01.795Z,79.27
2018-11-01T03:05:30.458Z,79.12
2018-11-01T03:07:59.126Z,79.08
2018-11-01T03:10:27.780Z,79.32
2018-11-01T03:12:56.391Z,79.08
2018-11-01T03:15:25.033Z,79.01
2018-11-01T03:17:53.700Z,79.07
2018-11-01T03:20:22.352Z,79.12
2018-11-01T03:22:51.016Z,79.07
2018-11-01T03:25:19.920Z,79.19
2018-11-01T03:27:48.593Z,79.42
2018-11-01T03:30:17.257Z,79.22
2018-11-01T03:32:45.916Z,79.55
2018-11-01T03:35:14.582Z,79.67
2018-11-01T03:37:43.233Z,79.59
2018-11-01T03:40:12.630Z,79.93
2018-11-01T03:42:42.059Z,80.83
2018-11-01T03:45:12.330Z,81.12
2018-11-01T03:47:41.727Z,81.35
2018-11-01T03:50:10.878Z,81.11
2018-11-01T03:52:39.549Z,81.80
2018-11-01T03:55:09.525Z,82.31
2018-11-01T03:57:38.170Z,82.00
2018-11-01T04:00:09.665Z,81.89
2018-11-01T04:02:38.338Z,81.87
2018-11-01T04:05:06.989Z,82.01
2018-11-01T04:07:35.817Z,81.84
2018-11-01T04:10:05.589Z,82.05
2018-11-01T04:12:34.277Z,81.99
2018-11-01T04:15:02.970Z,82.52
2018-11-01T04:17:31.772Z,82.70
2018-11-01T04:20:00.458Z,82.75
2018-11-01T04:22:29.158Z,82.64
2018-11-01T04:24:57.813Z,83.10
2018-11-01T04:27:26.633Z,83.27
2018-11-01T04:29:55.297Z,83.21
2018-11-01T04:32:24.446Z,83.17
2018-11-01T04:34:53.074Z,83.25
2018-11-01T04:37:21.738Z,83.47
2018-11-01T04:39:50.558Z,83.41
2018-11-01T04:42:19.200Z,83.75
2018-11-01T04:44:47.884Z,83.97
2018-11-01T04:47:16.625Z,83.72
2018-11-01T04:49:45.292Z,83.94
2018-11-01T04:52:13.943Z,83.68
2018-11-01T04:54:42.631Z,83.77
2018-11-01T04:57:11.298Z,84.16
2018-11-01T04:59:40.015Z,83.98
2018-11-01T05:02:08.846Z,84.08
2018-11-01T05:04:37.674Z,84.00
2018-11-01T05:07:06.317Z,84.11
2018-11-01T05:09:34.963Z,83.84
2018-11-01T05:12:03.860Z,83.76
2018-11-01T05:14:32.458Z,83.66
2018-11-01T05:17:01.136Z,83.41
2018-11-01T05:19:29.767Z,83.46
2018-11-01T05:21:58.523Z,84.53
2018-11-01T05:24:27.925Z,85.12
2018-11-01T05:26:56.779Z,83.86
2018-11-01T05:29:25.429Z,83.67
2018-11-01T05:31:54.116Z,83.60
2018-11-01T05:34:22.808Z,83.53
2018-11-01T05:36:51.904Z,83.66
2018-11-01T05:39:21.421Z,83.85
2018-11-01T05:41:50.085Z,83.85
2018-11-01T05:44:18.709Z,83.65
2018-11-01T05:46:47.372Z,83.51
2018-11-01T05:49:16.205Z,83.75
2018-11-01T05:51:44.883Z,83.88
2018-11-01T05:54:14.655Z,83.95
2018-11-01T05:56:43.286Z,83.89
2018-11-01T05:59:11.929Z,83.98
2018-11-01T06:01:46.012Z,84.26
2018-11-01T06:04:14.680Z,83.92
2018-11-01T06:06:43.308Z,84.00
2018-11-01T06:09:16.700Z,84.34
2018-11-01T06:11:45.337Z,84.59
2018-11-01T06:14:13.999Z,84.35
2018-11-01T06:16:42.684Z,84.18
2018-11-01T06:19:11.391Z,84.36
2018-11-01T06:21:40.058Z,84.53
2018-11-01T06:24:08.716Z,84.76
2018-11-01T06:26:37.434Z,84.79
2018-11-01T06:29:06.058Z,84.53
2018-11-01T06:31:34.810Z,84.56
2018-11-01T06:34:03.433Z,84.84
2018-11-01T06:36:32.105Z,84.82
2018-11-01T06:39:00.780Z,84.95
2018-11-01T06:41:29.500Z,84.82
2018-11-01T06:43:58.163Z,84.80
2018-11-01T06:46:26.842Z,84.66
2018-11-01T06:48:55.542Z,84.72
2018-11-01T06:51:25.017Z,84.42
2018-11-01T06:53:53.776Z,84.36
2018-11-01T06:56:22.440Z,84.37
2018-11-01T06:58:51.201Z,84.18
2018-11-01T07:01:20.023Z,83.66
2018-11-01T07:03:48.761Z,84.01
2018-11-01T07:06:17.782Z,83.84
2018-11-01T07:08:46.606Z,83.70
2018-11-01T07:11:15.267Z,83.89
2018-11-01T07:13:43.911Z,83.60
2018-11-01T07:16:12.531Z,83.63
2018-11-01T07:18:41.277Z,83.55
2018-11-01T07:21:09.937Z,83.91
2018-11-01T07:23:38.624Z,83.11
2018-11-01T07:26:07.377Z,82.90
2018-11-01T07:28:36.378Z,82.99
2018-11-01T07:31:05.144Z,82.53
2018-11-01T07:33:33.837Z,82.73
2018-11-01T07:36:02.517Z,82.43
2018-11-01T07:38:31.200Z,81.93
2018-11-01T07:40:59.875Z,81.67
2018-11-01T07:43:28.549Z,81.86
2018-11-01T07:45:57.212Z,82.09
2018-11-01T07:48:25.913Z,81.76
2018-11-01T07:50:54.491Z,81.68
2018-11-01T07:53:23.188Z,81.50
2018-11-01T07:55:51.831Z,81.10
2018-11-01T07:58:20.566Z,80.91
2018-11-01T08:00:49.182Z,81.08
2018-11-01T08:03:17.791Z,80.58
2018-11-01T08:05:46.516Z,80.83
2018-11-01T08:08:15.112Z,80.61
2018-11-01T08:10:43.829Z,80.83
2018-11-01T08:13:12.455Z,81.02
2018-11-01T08:15:41.088Z,81.07
2018-11-01T08:18:09.714Z,80.84
2018-11-01T08:20:38.423Z,80.86
2018-11-01T08:23:06.980Z,80.60
2018-11-01T08:25:35.617Z,80.46
2018-11-01T08:28:04.322Z,80.60
2018-11-01T08:30:32.871Z,80.33
2018-11-01T08:33:01.594Z,80.04
2018-11-01T08:35:30.292Z,80.00
2018-11-01T08:37:58.946Z,79.74
2018-11-01T08:40:27.597Z,79.32
2018-11-01T08:42:56.227Z,79.32
2018-11-01T08:45:24.836Z,79.12
2018-11-01T08:47:53.503Z,78.86
2018-11-01T08:50:22.157Z,78.80
2018-11-01T08:52:50.851Z,78.92
2018-11-01T08:55:19.511Z,78.90
2018-11-01T08:57:48.133Z,78.38
2018-11-01T09:00:16.809Z,78.02
2018-11-01T09:02:45.592Z,78.25
2018-11-01T09:05:14.623Z,78.13
2018-11-01T09:07:43.346Z,77.87
2018-11-01T09:10:13.668Z,77.25
2018-11-01T09:12:42.453Z,76.90
2018-11-01T09:15:11.976Z,76.81
2018-11-01T09:17:40.932Z,76.55
2018-11-01T09:20:10.064Z,76.38
2018-11-01T09:22:39.200Z,75.98
2018-11-01T09:25:07.977Z,76.41
2018-11-01T09:27:36.756Z,76.62
2018-11-01T09:30:07.903Z,76.68
2018-11-01T09:32:36.515Z,76.04
2018-11-01T09:35:05.659Z,76.07
2018-11-01T09:37:34.315Z,76.50
2018-11-01T09:40:02.991Z,76.59
2018-11-01T09:42:31.652Z,76.50
2018-11-01T09:45:00.276Z,76.74
2018-11-01T09:47:29.258Z,76.12
2018-11-01T09:49:57.564Z,75.73
2018-11-01T09:52:26.300Z,75.67
2018-11-01T09:54:54.934Z,75.40
2018-11-01T09:57:23.673Z,75.71
2018-11-01T09:59:52.386Z,75.89
2018-11-01T10:02:20.968Z,75.87
2018-11-01T10:04:49.631Z,75.35
2018-11-01T10:07:18.308Z,75.00
2018-11-01T10:09:47.017Z,75.53
2018-11-01T10:12:15.650Z,75.50
2018-11-01T10:14:44.269Z,76.63
2018-11-01T10:17:13.429Z,75.85
2018-11-01T10:19:41.548Z,76.58
2018-11-01T10:22:10.186Z,75.62
2018-11-01T10:24:38.939Z,75.49
2018-11-01T10:27:07.923Z,76.07
2018-11-01T10:29:36.679Z,74.81
2018-11-01T10:32:05.474Z,74.30
2018-11-01T10:34:34.094Z,74.49
2018-11-01T10:37:02.705Z,72.50
2018-11-01T10:39:31.333Z,71.50
2018-11-01T10:42:00.112Z,70.29
2018-11-01T10:44:28.755Z,70.72
2018-11-01T10:46:57.599Z,69.75
2018-11-01T10:49:26.248Z,69.98
2018-11-01T10:51:54.935Z,70.85
2018-11-01T10:54:23.694Z,70.14
2018-11-01T10:56:52.160Z,70.16
2018-11-01T10:59:20.764Z,70.15
2018-11-01T11:01:54.771Z,70.35
2018-11-01T11:04:23.392Z,70.99
2018-11-01T11:06:52.080Z,71.62
2018-11-01T11:09:20.700Z,71.57
2018-11-01T11:11:49.328Z,71.57
2018-11-01T11:14:18.041Z,71.58
2018-11-01T11:16:46.638Z,72.73
2018-11-01T11:19:15.269Z,72.86
2018-11-01T11:21:45.676Z,72.84
2018-11-01T11:24:14.455Z,72.37
2018-11-01T11:26:43.064Z,72.66
2018-11-01T11:29:11.757Z,72.17
2018-11-01T11:31:40.392Z,73.05
2018-11-01T11:34:09.041Z,73.17
2018-11-01T11:36:37.692Z,73.32
2018-11-01T11:39:09.071Z,72.96
2018-11-01T11:41:37.812Z,73.00
2018-11-01T11:44:06.652Z,72.78
2018-11-01T11:46:35.260Z,72.54
2018-11-01T11:49:03.916Z,72.69
2018-11-01T11:51:32.626Z,73.11
2018-11-01T11:54:01.233Z,73.50
2018-11-01T11:56:30.156Z,73.17
2018-11-01T11:58:58.810Z,72.94
2018-11-01T12:01:27.477Z,72.50
2018-11-01T12:03:56.083Z,72.66
2018-11-01T12:06:25.057Z,73.04
2018-11-01T12:08:53.521Z,72.82
2018-11-01T12:11:22.259Z,73.77
2018-11-01T12:13:50.914Z,73.69
2018-11-01T12:16:19.605Z,74.14
2018-11-01T12:18:48.237Z,73.98
2018-11-01T12:21:16.924Z,73.43
2018-11-01T12:23:45.550Z,73.49
2018-11-01T12:26:14.513Z,73.17
2018-11-01T12:28:43.398Z,72.71
2018-11-01T12:31:11.872Z,73.01
2018-11-01T12:33:40.638Z,73.20
2018-11-01T12:36:09.434Z,73.04
2018-11-01T12:38:37.991Z,72.92
2018-11-01T12:41:06.633Z,72.97
2018-11-01T12:43:35.268Z,72.95
2018-11-01T12:46:03.971Z,72.86
2018-11-01T12:48:32.614Z,72.98
2018-11-01T12:51:01.276Z,72.73
2018-11-01T12:53:29.934Z,73.45
2018-11-01T12:55:58.637Z,73.28
2018-11-01T12:58:27.266Z,74.08
2018-11-01T13:00:55.914Z,73.62
2018-11-01T13:03:24.560Z,74.33
2018-11-01T13:05:53.200Z,74.10
2018-11-01T13:08:22.149Z,74.81
2018-11-01T13:10:50.926Z,75.33
2018-11-01T13:13:19.656Z,74.79
2018-11-01T13:15:48.304Z,75.09
2018-11-01T13:18:16.955Z,74.90
2018-11-01T13:20:45.604Z,75.84
2018-11-01T13:23:14.248Z,75.58
2018-11-01T13:25:42.921Z,75.96
2018-11-01T13:28:11.532Z,76.36
2018-11-01T13:30:40.187Z,76.65
2018-11-01T13:33:08.931Z,76.98
2018-11-01T13:35:37.625Z,77.21
2018-11-01T13:38:06.279Z,77.14
2018-11-01T13:40:35.271Z,77.37
2018-11-01T13:43:03.551Z,77.61
2018-11-01T13:45:32.224Z,77.42
2018-11-01T13:48:00.936Z,77.76
2018-11-01T13:50:29.485Z,78.34
2018-11-01T13:52:58.158Z,78.24
2018-11-01T13:55:26.801Z,78.10
2018-11-01T13:57:55.421Z,78.72
2018-11-01T14:00:24.059Z,78.85
2018-11-01T14:02:52.760Z,79.38
2018-11-01T14:05:21.419Z,80.18
2018-11-01T14:07:50.353Z,80.27
2018-11-01T14:10:19.012Z,80.23
2018-11-01T14:12:47.677Z,80.63
2018-11-01T14:15:16.745Z,80.51
2018-11-01T14:17:45.024Z,80.61
2018-11-01T14:20:14.132Z,80.13
2018-11-01T14:22:42.816Z,79.93
2018-11-01T14:25:12.373Z,80.37
2018-11-01T14:27:41.287Z,80.45
2018-11-01T14:30:12.109Z,80.89
2018-11-01T14:32:41.003Z,81.16
2018-11-01T14:35:10.290Z,81.53
2018-11-01T14:37:38.939Z,81.44
2018-11-01T14:40:09.753Z,81.32
2018-11-01T14:42:38.567Z,81.63
2018-11-01T14:45:07.692Z,81.73
2018-11-01T14:47:36.345Z,81.88
2018-11-01T14:50:06.070Z,82.29
2018-11-01T14:52:35.200Z,82.34
2018-11-01T14:55:04.256Z,82.73
2018-11-01T14:57:33.609Z,83.15
2018-11-01T15:00:00.773Z,82.63
2018-11-01T15:02:29.396Z,82.84
2018-11-01T15:04:58.080Z,83.19
2018-11-01T15:07:26.728Z,83.20
2018-11-01T15:09:55.525Z,83.42
2018-11-01T15:12:24.368Z,83.89
2018-11-01T15:14:53.029Z,83.94
2018-11-01T15:17:21.744Z,83.91
2018-11-01T15:19:50.425Z,83.89
2018-11-01T15:22:19.070Z,84.01
2018-11-01T15:24:47.800Z,84.34
2018-11-01T15:27:16.517Z,84.24
2018-11-01T15:29:45.181Z,84.27
2018-11-01T15:32:19.288Z,84.47
2018-11-01T15:34:47.974Z,84.47
2018-11-01T15:37:16.632Z,84.63
2018-11-01T15:39:45.337Z,84.52
2018-11-01T15:42:14.020Z,84.48
2018-11-01T15:44:42.856Z,84.73
2018-11-01T15:47:11.514Z,84.60
2018-11-01T15:49:40.420Z,84.95
2018-11-01T15:52:09.270Z,85.71
2018-11-01T15:54:38.041Z,85.35
2018-11-01T15:57:06.708Z,85.00
2018-11-01T15:59:35.407Z,85.14
2018-11-01T16:02:04.089Z,84.88
2018-11-01T16:04:32.663Z,85.20
2018-11-01T16:07:01.324Z,85.13
2018-11-01T16:09:29.948Z,85.24
2018-11-01T16:11:58.547Z,85.04
2018-11-01T16:14:27.466Z,85.04
2018-11-01T16:16:56.075Z,85.37
2018-11-01T16:19:24.750Z,85.50
2018-11-01T16:21:53.395Z,85.22
2018-11-01T16:24:22.113Z,85.60
2018-11-01T16:26:50.778Z,85.54
2018-11-01T16:29:19.525Z,85.59
2018-11-01T16:31:48.176Z,85.53
2018-11-01T16:34:16.826Z,85.56
2018-11-01T16:36:45.643Z,85.92
2018-11-01T16:39:15.020Z,86.59
2018-11-01T16:41:43.755Z,86.89
2018-11-01T16:44:13.152Z,87.38
2018-11-01T16:46:41.780Z,87.44
2018-11-01T16:49:10.835Z,87.34
2018-11-01T16:51:39.480Z,87.09
2018-11-01T16:54:08.186Z,86.78
2018-11-01T16:56:36.846Z,87.31
2018-11-01T16:59:05.963Z,87.30
2018-11-01T17:01:35.797Z,87.49
2018-11-01T17:04:04.565Z,87.83
2018-11-01T17:06:33.333Z,88.01
2018-11-01T17:09:02.004Z,87.85
2018-11-01T17:11:30.829Z,87.91
2018-11-01T17:13:59.444Z,87.70
2018-11-01T17:16:28.081Z,88.09
2018-11-01T17:18:56.815Z,87.73
2018-11-01T17:21:25.454Z,88.20
2018-11-01T17:23:54.105Z,88.13
2018-11-01T17:26:22.929Z,87.81
2018-11-01T17:28:51.560Z,87.91
2018-11-01T17:31:20.401Z,87.73
2018-11-01T17:33:49.183Z,87.85
2018-11-01T17:36:18.006Z,87.67
2018-11-01T17:38:46.748Z,87.41
2018-11-01T17:41:15.515Z,87.43
2018-11-01T17:43:44.287Z,87.54
2018-11-01T17:46:12.996Z,87.87
2018-11-01T17:48:41.955Z,87.40
2018-11-01T17:51:10.696Z,87.66
2018-11-01T17:53:39.273Z,88.14
2018-11-01T17:56:08.033Z,88.21
2018-11-01T17:58:36.693Z,88.10
2018-11-01T18:01:05.816Z,87.85
2018-11-01T18:03:34.772Z,87.92
2018-11-01T18:06:03.424Z,87.78
2018-11-01T18:08:32.244Z,87.70
2018-11-01T18:11:01.024Z,88.14
2018-11-01T18:13:29.656Z,87.85
2018-11-01T18:15:58.367Z,88.14
2018-11-01T18:18:26.983Z,87.72
2018-11-01T18:20:55.696Z,87.25
2018-11-01T18:23:24.404Z,87.63
2018-11-01T18:25:53.024Z,87.21
2018-11-01T18:28:21.672Z,87.03
2018-11-01T18:30:50.396Z,87.33
2018-11-01T18:33:19.080Z,87.74
2018-11-01T18:35:47.788Z,87.85
2018-11-01T18:38:16.400Z,87.76
2018-11-01T18:40:45.065Z,87.96
2018-11-01T18:43:13.811Z,88.01
2018-11-01T18:45:42.442Z,88.65
2018-11-01T18:48:11.128Z,88.01
2018-11-01T18:50:39.769Z,88.03
2018-11-01T18:53:08.473Z,88.33
2018-11-01T18:55:37.117Z,87.92
2018-11-01T18:58:05.889Z,87.91
2018-11-01T19:00:34.595Z,87.81
2018-11-01T19:03:03.212Z,87.89
2018-11-01T19:05:31.854Z,88.01
2018-11-01T19:08:00.500Z,88.68
2018-11-01T19:10:29.251Z,88.64
2018-11-01T19:12:57.917Z,88.68
2018-11-01T19:15:26.571Z,88.70
2018-11-01T19:17:55.275Z,88.78
2018-11-01T19:20:23.948Z,89.56
2018-11-01T19:22:52.600Z,89.78
2018-11-01T19:25:21.459Z,89.86
2018-11-01T19:27:50.106Z,90.07
2018-11-01T19:30:18.660Z,89.68
2018-11-01T19:32:47.292Z,90.23
2018-11-01T19:35:15.999Z,90.31
2018-11-01T19:37:44.636Z,90.60
2018-11-01T19:40:14.979Z,90.81
2018-11-01T19:42:44.047Z,90.42
2018-11-01T19:45:12.772Z,90.18
2018-11-01T19:47:41.403Z,90.26
2018-11-01T19:50:12.060Z,90.81
2018-11-01T19:52:40.908Z,90.73
2018-11-01T19:55:09.693Z,90.77
2018-11-01T19:57:38.490Z,91.26
2018-11-01T20:00:10.349Z,91.06
2018-11-01T20:02:39.131Z,90.86
2018-11-01T20:05:08.674Z,90.60
2018-11-01T20:07:37.516Z,91.26
2018-11-01T20:10:07.663Z,91.21
2018-11-01T20:12:36.294Z,91.69
2018-11-01T20:15:05.543Z,91.94
2018-11-01T20:17:34.525Z,92.58
2018-11-01T20:20:03.520Z,92.67
2018-11-01T20:22:32.166Z,92.50
2018-11-01T20:25:00.865Z,92.65
2018-11-01T20:27:29.557Z,92.24
2018-11-01T20:29:58.197Z,92.32
2018-11-01T20:32:26.877Z,93.35
2018-11-01T20:34:55.565Z,92.80
2018-11-01T20:37:24.256Z,92.88
2018-11-01T20:39:52.979Z,92.64
2018-11-01T20:42:21.616Z,92.67
2018-11-01T20:44:50.360Z,93.06
2018-11-01T20:47:19.021Z,92.76
2018-11-01T20:49:47.682Z,93.37
2018-11-01T20:52:16.371Z,93.18
2018-11-01T20:54:45.034Z,93.36
2018-11-01T20:57:13.812Z,93.19
2018-11-01T20:59:42.340Z,93.29
2018-11-01T21:02:11.020Z,93.27
2018-11-01T21:04:39.803Z,93.22
2018-11-01T21:07:08.413Z,93.70
2018-11-01T21:09:37.074Z,94.10
2018-11-01T21:12:06.152Z,94.04
2018-11-01T21:14:34.831Z,93.84
2018-11-01T21:17:03.650Z,93.46
2018-11-01T21:19:32.172Z,93.73
2018-11-01T21:22:00.846Z,94.12
2018-11-01T21:24:29.575Z,93.75
2018-11-01T21:26:58.240Z,94.13
2018-11-01T21:29:26.931Z,94.19
2018-11-01T21:31:55.940Z,93.99
2018-11-01T21:34:24.977Z,93.72
2018-11-01T21:36:53.600Z,93.83
2018-11-01T21:39:22.248Z,93.96
2018-11-01T21:41:51.341Z,93.88
2018-11-01T21:44:20.283Z,94.27
2018-11-01T21:46:48.892Z,93.81
2018-11-01T21:49:17.704Z,92.96
2018-11-01T21:51:46.648Z,92.83
2018-11-01T21:54:15.354Z,92.68
2018-11-01T21:56:44.216Z,93.39
2018-11-01T21:59:12.995Z,93.19
2018-11-01T22:01:42.408Z,93.32
2018-11-01T22:04:11.152Z,93.68
2018-11-01T22:06:39.753Z,93.06
2018-11-01T22:09:08.668Z,93.09
2018-11-01T22:11:37.566Z,93.32
2018-11-01T22:14:06.713Z,93.32
2018-11-01T22:16:35.500Z,93.93
2018-11-01T22:19:04.218Z,93.85
2018-11-01T22:21:32.950Z,93.54
2018-11-01T22:24:01.603Z,93.19
2018-11-01T22:26:30.322Z,93.34
2018-11-01T22:28:58.985Z,93.50
2018-11-01T22:31:27.885Z,93.91
2018-11-01T22:33:57.378Z,94.03
2018-11-01T22:36:26.184Z,93.96
2018-11-01T22:38:54.911Z,94.18
2018-11-01T22:41:23.574Z,94.16
2018-11-01T22:43:52.256Z,93.61
2018-11-01T22:46:20.988Z,93.91
2018-11-01T22:48:49.778Z,93.77
2018-11-01T22:51:19.049Z,93.48
2018-11-01T22:53:47.732Z,93.83
2018-11-01T22:56:16.308Z,93.61
2018-11-01T22:58:45.129Z,93.68
2018-11-01T23:01:13.776Z,93.64
2018-11-01T23:03:42.864Z,93.99
2018-11-01T23:06:11.521Z,93.64
2018-11-01T23:08:40.129Z,93.74
2018-11-01T23:11:08.804Z,93.31
2018-11-01T23:13:37.452Z,93.17
2018-11-01T23:16:06.119Z,93.51
2018-11-01T23:18:34.797Z,93.54
2018-11-01T23:21:03.444Z,94.03
2018-11-01T23:23:32.320Z,93.48
2018-11-01T23:26:00.983Z,93.54
2018-11-01T23:28:29.596Z,93.13
2018-11-01T23:30:58.409Z,93.22
2018-11-01T23:33:27.026Z,93.41
2018-11-01T23:36:00.632Z,93.50
2018-11-01T23:38:34.688Z,93.53
2018-11-01T23:41:08.698Z,94.02
2018-11-01T23:43:42.728Z,93.31
2018-11-01T23:46:16.774Z,93.70
2018-11-01T23:48:51.704Z,93.77
2018-11-01T23:51:20.333Z,93.02
2018-11-01T23:53:50.246Z,93.49
2018-11-01T23:56:19.238Z,93.42
2018-11-01T23:58:47.868Z,92.22
